Flight Track Log - Related Links

Times and Time Zones

All times are in EDT time to prevent confusion due to time zone crossing. See the SWA1677 flight status page for this flight to view local times or setup timezone preferences in your user account.

Time Position Orientation Groundspeed Altitude Reporting Facility
EDT Latitude Longitude Course Direction KTS MPH feet Rate Location/Type
Sun 12:04:45 PM 35.0433 -106.5664 70° East 178 205 6,500  Level Albuquerque Center
Sun 12:05:33 PM 35.0569 -106.5214 70° East 214 246 7,800 1,969 Climbing Albuquerque Center
Sun 12:05:49 PM 35.0733 -106.5144 19° North 235 270 8,600 2,557 Climbing Albuquerque Center
Sun 12:06:34 PM 35.0989 -106.5544 308° West 247 284 10,400 2,032 Climbing Albuquerque Center
Sun 12:06:51 PM 35.1025 -106.5800 280° West 248 285 10,700 2,278 Climbing Albuquerque Center
Sun 12:07:53 PM 35.1147 -106.6897 278° West 301 346 13,400 2,976 Climbing Albuquerque Center
Sun 12:08:54 PM 35.1167 -106.8125 271° West 356 410 16,800 3,268 Climbing Albuquerque Center
Sun 12:09:56 PM 35.1147 -106.9478 269° West 375 432 20,100 3,122 Climbing Albuquerque Center
Sun 12:10:57 PM 35.1133 -107.0964 269° West 393 452 23,200 2,634 Climbing Albuquerque Center
Sun 12:11:59 PM 35.1106 -107.2333 269° West 422 486 25,500 2,177 Climbing Albuquerque Center
Sun 12:13:01 PM 35.1028 -107.3778 266° West 428 493 27,700 1,951 Climbing Albuquerque Center
Sun 12:14:02 PM 35.0919 -107.5258 265° West 435 501 29,500 1,707 Climbing Albuquerque Center
Sun 12:15:04 PM 35.0806 -107.6817 265° West 453 521 31,200 1,984 Climbing Albuquerque Center
Sun 12:16:06 PM 35.0669 -107.8667 265° West 466 536 33,600 2,049 Climbing Albuquerque Center
Sun 12:17:07 PM 35.0550 -108.0156 264° West 462 532 35,400 1,366 Climbing Albuquerque Center
Sun 12:18:09 PM 35.0447 -108.1656 265° West 462 532 36,400 968 Climbing Albuquerque Center
Sun 12:19:11 PM 35.0317 -108.3481 265° West 477 549 37,400 774 Climbing Albuquerque Center
Sun 12:20:13 PM 35.0189 -108.5069 264° West 486 559 38,000 293 Climbing Albuquerque Center
Sun 12:21:14 PM 35.0036 -108.6917 264° West 488 562 38,000  Level Albuquerque Center
Sun 12:22:16 PM 34.9928 -108.8472 265° West 483 556 38,000  Level Albuquerque Center
Sun 12:23:18 PM 34.9803 -109.0044 265° West 484 557 38,000  Level Albuquerque Center
Sun 12:24:19 PM 34.9647 -109.1889 264° West 486 559 38,000  Level Albuquerque Center
Sun 12:25:21 PM 34.9550 -109.3439 266° West 482 555 38,000  Level Albuquerque Center
Sun 12:26:23 PM 34.9419 -109.5236 265° West 477 549 38,000  Level Albuquerque Center
Sun 12:27:25 PM 34.9317 -109.6789 265° West 476 548 38,000  Level Albuquerque Center
Sun 12:28:26 PM 34.9186 -109.8606 265° West 479 551 38,000  Level Albuquerque Center
Sun 12:29:28 PM 34.9069 -110.0158 265° West 480 552 38,000  Level Albuquerque Center
Sun 12:30:30 PM 34.8969 -110.1736 266° West 485 558 38,000  Level Albuquerque Center
Sun 12:31:31 PM 34.8861 -110.3600 266° West 492 566 38,000  Level Albuquerque Center
Sun 12:32:33 PM 34.8719 -110.5142 264° West 485 558 38,000  Level Albuquerque Center
Sun 12:33:35 PM 34.8567 -110.6936 264° West 480 552 38,000  Level Albuquerque Center
Sun 12:34:37 PM 34.8436 -110.8303 263° West 488 562 38,000  Level Albuquerque Center
Sun 12:35:38 PM 34.8281 -111.0228 264° West 482 555 38,000  Level Albuquerque Center
Sun 12:36:40 PM 34.8131 -111.1872 264° West 486 559 38,000  Level Albuquerque Center
Sun 12:37:42 PM 34.7922 -111.3472 261° West 487 560 38,000  Level Albuquerque Center
Sun 12:38:44 PM 34.7700 -111.5061 260° West 485 558 38,000  Level Albuquerque Center
Sun 12:39:46 PM 34.7481 -111.6631 260° West 481 554 38,000  Level Albuquerque Center
Sun 12:40:47 PM 34.7258 -111.8208 260° West 479 551 38,000  Level Albuquerque Center
Sun 12:41:49 PM 34.6994 -112.0117 261° West 479 551 38,000  Level Albuquerque Center
Sun 12:42:51 PM 34.6775 -112.1706 261° West 480 552 38,000  Level Albuquerque Center
Sun 12:43:53 PM 34.6542 -112.3289 260° West 480 552 38,000  Level Albuquerque Center
Sun 12:44:55 PM 34.6314 -112.4933 260° West 481 554 38,000  Level Albuquerque Center
Sun 12:45:57 PM 34.6086 -112.6525 260° West 480 552 38,000  Level Albuquerque Center
Sun 12:46:58 PM 34.5858 -112.8108 260° West 478 550 38,000  Level Albuquerque Center
Sun 12:48:00 PM 34.5619 -112.9703 260° West 479 551 38,000  Level Albuquerque Center
Sun 12:49:02 PM 34.5331 -113.1594 260° West 478 550 38,000  Level Albuquerque Center
Sun 12:50:04 PM 34.5092 -113.3186 260° West 479 551 38,000  Level Albuquerque Center
Sun 12:51:06 PM 34.4853 -113.4747 260° West 475 547 38,000  Level Albuquerque Center
Sun 12:52:08 PM 34.4586 -113.6458 259° West 473 544 38,000  Level Albuquerque Center
Sun 12:53:10 PM 34.4344 -113.8028 259° West 473 544 38,000  Level Albuquerque Center
Sun 12:54:11 PM 34.4103 -113.9583 259° West 471 542 38,000  Level Albuquerque Center
Sun 12:55:13 PM 34.3853 -114.1156 259° West 472 543 38,000  Level Albuquerque Center
Sun 12:56:15 PM 34.3603 -114.2722 259° West 474 545 38,000  Level Albuquerque Center
Sun 12:57:17 PM 34.3358 -114.4292 259° West 473 544 38,000  Level Albuquerque Center
Sun 12:58:29 PM 34.3033 -114.6339 259° West 473 544 38,000  Level Los Angeles Center
Sun 12:59:31 PM 34.2778 -114.7881 259° West 468 539 38,000  Level Los Angeles Center
Sun 01:00:34 PM 34.2525 -114.9428 259° West 471 542 38,000  Level Los Angeles Center
Sun 01:01:36 PM 34.2272 -115.0961 259° West 467 537 38,000  Level Los Angeles Center
Sun 01:02:38 PM 34.1975 -115.2800 259° West 468 539 38,000  Level Los Angeles Center
Sun 01:03:40 PM 34.1708 -115.4331 258° West 468 539 38,000  Level Los Angeles Center
Sun 01:04:42 PM 34.1444 -115.5858 258° West 467 537 38,000  Level Los Angeles Center
Sun 01:05:44 PM 34.1175 -115.7392 258° West 468 539 38,000 -484 Level Los Angeles Center
Sun 01:06:46 PM 34.0939 -115.8914 259° West 465 535 37,000 -2,081 Descending Los Angeles Center
Sun 01:07:48 PM 34.0683 -116.0764 261° West 469 540 33,700 -3,000 Descending Los Angeles Center
Sun 01:08:50 PM 34.0444 -116.2322 260° West 476 548 30,800 -2,565 Descending Los Angeles Center
Sun 01:09:52 PM 34.0206 -116.3883 260° West 477 549 28,400 -2,256 Descending Los Angeles Center
Sun 01:10:55 PM 34.0006 -116.5392 261° West 461 531 26,100 -2,256 Descending Los Angeles Center
Sun 01:11:57 PM 33.9892 -116.6847 265° West 442 509 23,700 -2,226 Descending Los Angeles Center
Sun 01:12:59 PM 33.9778 -116.8261 264° West 430 495 21,500 -2,333 Descending Los Angeles Center
Sun 01:13:27 PM 33.9667 -116.9167 262° West 407 468 20,200 -2,386 Descending Southern California TRACON
Sun 01:14:27 PM 33.9667 -117.0500 270° West 399 459 18,000 -1,600 Descending Southern California TRACON
Sun 01:15:27 PM 33.9500 -117.1833 261° West 382 440 17,000 -1,350 Descending Southern California TRACON
Sun 01:16:27 PM 33.9333 -117.3000 260° West 365 420 15,300 -1,850 Descending Southern California TRACON
Sun 01:17:27 PM 33.9500 -117.4167 280° West 362 417 13,300 -2,050 Descending Southern California TRACON
Sun 01:18:27 PM 33.9833 -117.5333 289° West 350 403 11,200 -1,500 Descending Southern California TRACON
Sun 01:19:27 PM 34.0167 -117.6333 292° West 387 445 10,300 -850 Descending Southern California TRACON
Sun 01:20:27 PM 34.0167 -117.7333 270° West 273 314 9,500 -1,000 Descending Southern California TRACON
Sun 01:21:27 PM 34.0167 -117.8167 270° West 276 318 8,300 -1,250 Descending Southern California TRACON
Sun 01:22:27 PM 34.0000 -117.9167 259° West 273 314 7,000 -1,100 Descending Southern California TRACON
Sun 01:23:27 PM 34.0000 -118.0000 270° West 259 298 6,100 -950 Descending Southern California TRACON
Sun 01:24:27 PM 33.9833 -118.0833 256° West 244 281 5,100 -974 Descending Southern California TRACON
Sun 01:25:24 PM 33.9783 -118.1425 264° West 243 280 4,200 -1,008 Descending Los Angeles Center
Sun 01:26:26 PM 33.9711 -118.2128 263° West 222 255 3,100 -1,065 Descending Los Angeles Center
Sun 01:27:28 PM 33.9639 -118.2925 264° West 208 239 2,000 -1,016 Descending Los Angeles Center
Sun 01:28:30 PM 33.9583 -118.3481 263° West 187 215 1,000 -823 Descending Los Angeles Center
Sun 01:29:32 PM 33.9536 -118.3947 263° West 160 184 300 -677 Descending Los Angeles Center
Sun 01:31:00 PM 33.9333 -118.4000 270° West  Level FlightAware Approximate
Sun 01:38:00 PM 33.9425 -118.4081 270° West  Level Estimated

Login

Don't have an account? Register now (free) for customized features, flight alerts, and more!